sensor_id;sensor_type;location;lat;lon;timestamp;P1;P2;P0
73935;PMS5003;62287;50.858;0.252;2023-01-16T00:00:20;20.0;18.0;
73935;PMS5003;62287;50.858;0.252;2023-01-16T00:00:51;13.0;13.0;
73935;PMS5003;62287;50.858;0.252;2023-01-16T00:01:23;17.0;15.0;
73935;PMS5003;62287;50.858;0.252;2023-01-16T00:01:57;15.0;15.0;
73935;PMS5003;62287;50.858;0.252;2023-01-16T00:02:28;16.0;15.0;
73935;PMS5003;62287;50.858;0.252;2023-01-16T00:02:59;14.0;13.0;
73935;PMS5003;62287;50.858;0.252;2023-01-16T00:03:30;15.0;14.0;
73935;PMS5003;62287;50.858;0.252;2023-01-16T00:04:01;16.0;14.0;
73935;PMS5003;62287;50.858;0.252;2023-01-16T00:04:32;15.0;15.0;
73935;PMS5003;62287;50.858;0.252;2023-01-16T00:05:04;17.0;14.0;
73935;PMS5003;62287;50.858;0.252;2023-01-16T00:05:35;14.0;14.0;
73935;PMS5003;62287;50.858;0.252;2023-01-16T00:06:06;13.0;13.0;
73935;PMS5003;62287;50.858;0.252;2023-01-16T00:06:37;15.0;14.0;
73935;PMS5003;62287;50.858;0.252;2023-01-16T00:07:08;14.0;14.0;
73935;PMS5003;62287;50.858;0.252;2023-01-16T00:07:39;17.0;13.0;
73935;PMS5003;62287;50.858;0.252;2023-01-16T00:08:10;15.0;14.0;
73935;PMS5003;62287;50.858;0.252;2023-01-16T00:08:41;15.0;15.0;
73935;PMS5003;62287;50.858;0.252;2023-01-16T00:09:13;13.0;13.0;
73935;PMS5003;62287;50.858;0.252;2023-01-16T00:09:44;20.0;18.0;
73935;PMS5003;62287;50.858;0.252;2023-01-16T00:10:15;15.0;11.0;
73935;PMS5003;62287;50.858;0.252;2023-01-16T00:10:46;13.0;13.0;
73935;PMS5003;62287;50.858;0.252;2023-01-16T00:11:17;16.0;16.0;
73935;PMS5003;62287;50.858;0.252;2023-01-16T00:11:48;15.0;13.0;
73935;PMS5003;62287;50.858;0.252;2023-01-16T00:12:19;17.0;14.0;
73935;PMS5003;62287;50.858;0.252;2023-01-16T00:12:50;16.0;13.0;
73935;PMS5003;62287;50.858;0.252;2023-01-16T00:13:21;15.0;15.0;
73935;PMS5003;62287;50.858;0.252;2023-01-16T00:13:51;17.0;15.0;
73935;PMS5003;62287;50.858;0.252;2023-01-16T00:14:22;15.0;15.0;
73935;PMS5003;62287;50.858;0.252;2023-01-16T00:14:53;15.0;13.0;
73935;PMS5003;62287;50.858;0.252;2023-01-16T00:15:24;17.0;13.0;
73935;PMS5003;62287;50.858;0.252;2023-01-16T00:15:56;15.0;15.0;
73935;PMS5003;62287;50.858;0.252;2023-01-16T00:16:27;17.0;14.0;
73935;PMS5003;62287;50.858;0.252;2023-01-16T00:16:58;12.0;11.0;
73935;PMS5003;62287;50.858;0.252;2023-01-16T00:17:29;14.0;14.0;
73935;PMS5003;62287;50.858;0.252;2023-01-16T00:18:00;16.0;16.0;
73935;PMS5003;62287;50.858;0.252;2023-01-16T00:18:31;12.0;12.0;
73935;PMS5003;62287;50.858;0.252;2023-01-16T00:19:02;13.0;13.0;
73935;PMS5003;62287;50.858;0.252;2023-01-16T00:19:34;14.0;12.0;
73935;PMS5003;62287;50.858;0.252;2023-01-16T00:20:05;19.0;16.0;
73935;PMS5003;62287;50.858;0.252;2023-01-16T00:20:37;15.0;15.0;
73935;PMS5003;62287;50.858;0.252;2023-01-16T00:21:08;12.0;12.0;
73935;PMS5003;62287;50.858;0.252;2023-01-16T00:21:38;15.0;14.0;
73935;PMS5003;62287;50.858;0.252;2023-01-16T00:22:09;13.0;13.0;
73935;PMS5003;62287;50.858;0.252;2023-01-16T00:22:41;13.0;13.0;
73935;PMS5003;62287;50.858;0.252;2023-01-16T00:23:11;13.0;13.0;
73935;PMS5003;62287;50.858;0.252;2023-01-16T00:23:42;14.0;14.0;
73935;PMS5003;62287;50.858;0.252;2023-01-16T00:24:13;14.0;13.0;
73935;PMS5003;62287;50.858;0.252;2023-01-16T00:24:44;13.0;12.0;
73935;PMS5003;62287;50.858;0.252;2023-01-16T00:25:15;15.0;13.0;
73935;PMS5003;62287;50.858;0.252;2023-01-16T00:25:46;16.0;13.0;
73935;PMS5003;62287;50.858;0.252;2023-01-16T00:26:17;12.0;12.0;
73935;PMS5003;62287;50.858;0.252;2023-01-16T00:26:49;15.0;14.0;
73935;PMS5003;62287;50.858;0.252;2023-01-16T00:27:20;13.0;13.0;
73935;PMS5003;62287;50.858;0.252;2023-01-16T00:27:51;15.0;12.0;
73935;PMS5003;62287;50.858;0.252;2023-01-16T00:28:22;14.0;11.0;
73935;PMS5003;62287;50.858;0.252;2023-01-16T00:28:53;13.0;10.0;
73935;PMS5003;62287;50.858;0.252;2023-01-16T00:29:24;13.0;13.0;
73935;PMS5003;62287;50.858;0.252;2023-01-16T00:29:55;12.0;12.0;
73935;PMS5003;62287;50.858;0.252;2023-01-16T00:30:26;14.0;12.0;
73935;PMS5003;62287;50.858;0.252;2023-01-16T00:30:57;14.0;13.0;
73935;PMS5003;62287;50.858;0.252;2023-01-16T00:31:28;16.0;14.0;
73935;PMS5003;62287;50.858;0.252;2023-01-16T00:31:59;11.0;10.0;
73935;PMS5003;62287;50.858;0.252;2023-01-16T00:32:29;11.0;9.0;
73935;PMS5003;62287;50.858;0.252;2023-01-16T00:33:01;12.0;10.0;
73935;PMS5003;62287;50.858;0.252;2023-01-16T00:33:32;13.0;13.0;
73935;PMS5003;62287;50.858;0.252;2023-01-16T00:34:03;13.0;12.0;
73935;PMS5003;62287;50.858;0.252;2023-01-16T00:34:34;14.0;13.0;
73935;PMS5003;62287;50.858;0.252;2023-01-16T00:35:05;11.0;11.0;
73935;PMS5003;62287;50.858;0.252;2023-01-16T00:35:37;11.0;10.0;
73935;PMS5003;62287;50.858;0.252;2023-01-16T00:36:08;13.0;12.0;
73935;PMS5003;62287;50.858;0.252;2023-01-16T00:36:40;14.0;14.0;
73935;PMS5003;62287;50.858;0.252;2023-01-16T00:37:10;12.0;11.0;
73935;PMS5003;62287;50.858;0.252;2023-01-16T00:37:41;16.0;14.0;
73935;PMS5003;62287;50.858;0.252;2023-01-16T00:38:12;10.0;10.0;
73935;PMS5003;62287;50.858;0.252;2023-01-16T00:38:43;11.0;10.0;
73935;PMS5003;62287;50.858;0.252;2023-01-16T00:39:14;14.0;13.0;
73935;PMS5003;62287;50.858;0.252;2023-01-16T00:39:45;15.0;12.0;
73935;PMS5003;62287;50.858;0.252;2023-01-16T00:40:16;11.0;11.0;
73935;PMS5003;62287;50.858;0.252;2023-01-16T00:40:47;13.0;10.0;
73935;PMS5003;62287;50.858;0.252;2023-01-16T00:41:18;11.0;11.0;
73935;PMS5003;62287;50.858;0.252;2023-01-16T00:41:49;10.0;10.0;
73935;PMS5003;62287;50.858;0.252;2023-01-16T00:42:20;12.0;12.0;
73935;PMS5003;62287;50.858;0.252;2023-01-16T00:42:51;14.0;13.0;
73935;PMS5003;62287;50.858;0.252;2023-01-16T00:43:22;11.0;11.0;
73935;PMS5003;62287;50.858;0.252;2023-01-16T00:43:53;12.0;11.0;
73935;PMS5003;62287;50.858;0.252;2023-01-16T00:44:24;10.0;9.0;
73935;PMS5003;62287;50.858;0.252;2023-01-16T00:44:55;15.0;13.0;
73935;PMS5003;62287;50.858;0.252;2023-01-16T00:45:26;12.0;12.0;
73935;PMS5003;62287;50.858;0.252;2023-01-16T00:45:57;12.0;12.0;
73935;PMS5003;62287;50.858;0.252;2023-01-16T00:46:28;13.0;13.0;
73935;PMS5003;62287;50.858;0.252;2023-01-16T00:46:59;9.0;9.0;
73935;PMS5003;62287;50.858;0.252;2023-01-16T00:47:30;12.0;12.0;
73935;PMS5003;62287;50.858;0.252;2023-01-16T00:48:01;10.0;9.0;
73935;PMS5003;62287;50.858;0.252;2023-01-16T00:48:32;10.0;10.0;
73935;PMS5003;62287;50.858;0.252;2023-01-16T00:49:02;11.0;11.0;
73935;PMS5003;62287;50.858;0.252;2023-01-16T00:49:33;11.0;11.0;
73935;PMS5003;62287;50.858;0.252;2023-01-16T00:50:05;9.0;9.0;
73935;PMS5003;62287;50.858;0.252;2023-01-16T00:50:37;12.0;9.0;
73935;PMS5003;62287;50.858;0.252;2023-01-16T00:51:08;10.0;10.0;
73935;PMS5003;62287;50.858;0.252;2023-01-16T00:51:39;10.0;10.0;
73935;PMS5003;62287;50.858;0.252;2023-01-16T00:52:10;10.0;9.0;
73935;PMS5003;62287;50.858;0.252;2023-01-16T00:52:40;13.0;13.0;
73935;PMS5003;62287;50.858;0.252;2023-01-16T00:53:12;11.0;11.0;
73935;PMS5003;62287;50.858;0.252;2023-01-16T00:53:43;11.0;10.0;
73935;PMS5003;62287;50.858;0.252;2023-01-16T00:54:13;11.0;10.0;
73935;PMS5003;62287;50.858;0.252;2023-01-16T00:54:44;12.0;9.0;
73935;PMS5003;62287;50.858;0.252;2023-01-16T00:55:15;10.0;9.0;
73935;PMS5003;62287;50.858;0.252;2023-01-16T00:55:46;9.0;9.0;
73935;PMS5003;62287;50.858;0.252;2023-01-16T00:56:17;11.0;11.0;
73935;PMS5003;62287;50.858;0.252;2023-01-16T00:56:48;13.0;11.0;
73935;PMS5003;62287;50.858;0.252;2023-01-16T00:57:19;9.0;8.0;
73935;PMS5003;62287;50.858;0.252;2023-01-16T00:57:50;13.0;11.0;
73935;PMS5003;62287;50.858;0.252;2023-01-16T00:58:21;12.0;9.0;
73935;PMS5003;62287;50.858;0.252;2023-01-16T00:58:52;10.0;9.0;
73935;PMS5003;62287;50.858;0.252;2023-01-16T00:59:24;12.0;9.0;
73935;PMS5003;62287;50.858;0.252;2023-01-16T00:59:55;15.0;12.0;
73935;PMS5003;62287;50.858;0.252;2023-01-16T01:00:25;7.0;7.0;
73935;PMS5003;62287;50.858;0.252;2023-01-16T01:00:56;9.0;9.0;
73935;PMS5003;62287;50.858;0.252;2023-01-16T01:01:27;12.0;11.0;
73935;PMS5003;62287;50.858;0.252;2023-01-16T01:01:58;9.0;9.0;
73935;PMS5003;62287;50.858;0.252;2023-01-16T01:02:29;9.0;9.0;
73935;PMS5003;62287;50.858;0.252;2023-01-16T01:03:00;11.0;11.0;
73935;PMS5003;62287;50.858;0.252;2023-01-16T01:03:31;9.0;9.0;
73935;PMS5003;62287;50.858;0.252;2023-01-16T01:04:02;9.0;9.0;
73935;PMS5003;62287;50.858;0.252;2023-01-16T01:04:33;10.0;9.0;
73935;PMS5003;62287;50.858;0.252;2023-01-16T01:05:05;11.0;9.0;
73935;PMS5003;62287;50.858;0.252;2023-01-16T01:05:36;12.0;10.0;
73935;PMS5003;62287;50.858;0.252;2023-01-16T01:06:08;9.0;9.0;
73935;PMS5003;62287;50.858;0.252;2023-01-16T01:06:39;8.0;8.0;
73935;PMS5003;62287;50.858;0.252;2023-01-16T01:07:11;8.0;8.0;
73935;PMS5003;62287;50.858;0.252;2023-01-16T01:07:42;10.0;8.0;
73935;PMS5003;62287;50.858;0.252;2023-01-16T01:08:13;10.0;10.0;
73935;PMS5003;62287;50.858;0.252;2023-01-16T01:08:44;9.0;7.0;
73935;PMS5003;62287;50.858;0.252;2023-01-16T01:09:15;12.0;12.0;
73935;PMS5003;62287;50.858;0.252;2023-01-16T01:09:45;9.0;9.0;
73935;PMS5003;62287;50.858;0.252;2023-01-16T01:10:16;9.0;9.0;
73935;PMS5003;62287;50.858;0.252;2023-01-16T01:10:48;7.0;7.0;
73935;PMS5003;62287;50.858;0.252;2023-01-16T01:11:18;8.0;8.0;
73935;PMS5003;62287;50.858;0.252;2023-01-16T01:11:50;11.0;9.0;
73935;PMS5003;62287;50.858;0.252;2023-01-16T01:12:21;9.0;9.0;
73935;PMS5003;62287;50.858;0.252;2023-01-16T01:12:53;7.0;7.0;
73935;PMS5003;62287;50.858;0.252;2023-01-16T01:13:24;10.0;10.0;
73935;PMS5003;62287;50.858;0.252;2023-01-16T01:13:55;12.0;9.0;
73935;PMS5003;62287;50.858;0.252;2023-01-16T01:14:26;9.0;8.0;
73935;PMS5003;62287;50.858;0.252;2023-01-16T01:14:57;7.0;7.0;
73935;PMS5003;62287;50.858;0.252;2023-01-16T01:15:28;8.0;7.0;
73935;PMS5003;62287;50.858;0.252;2023-01-16T01:15:59;9.0;9.0;
73935;PMS5003;62287;50.858;0.252;2023-01-16T01:16:30;11.0;10.0;
73935;PMS5003;62287;50.858;0.252;2023-01-16T01:17:01;8.0;7.0;
73935;PMS5003;62287;50.858;0.252;2023-01-16T01:17:32;8.0;8.0;
73935;PMS5003;62287;50.858;0.252;2023-01-16T01:18:03;7.0;7.0;
73935;PMS5003;62287;50.858;0.252;2023-01-16T01:18:36;9.0;8.0;
73935;PMS5003;62287;50.858;0.252;2023-01-16T01:19:07;12.0;9.0;
73935;PMS5003;62287;50.858;0.252;2023-01-16T01:19:38;9.0;9.0;
73935;PMS5003;62287;50.858;0.252;2023-01-16T01:20:09;9.0;8.0;
73935;PMS5003;62287;50.858;0.252;2023-01-16T01:20:41;9.0;9.0;
73935;PMS5003;62287;50.858;0.252;2023-01-16T01:21:12;9.0;7.0;
73935;PMS5003;62287;50.858;0.252;2023-01-16T01:21:43;9.0;7.0;
73935;PMS5003;62287;50.858;0.252;2023-01-16T01:22:14;7.0;7.0;
73935;PMS5003;62287;50.858;0.252;2023-01-16T01:22:45;8.0;7.0;
73935;PMS5003;62287;50.858;0.252;2023-01-16T01:23:16;9.0;9.0;
73935;PMS5003;62287;50.858;0.252;2023-01-16T01:23:47;10.0;8.0;
73935;PMS5003;62287;50.858;0.252;2023-01-16T01:24:18;8.0;8.0;
73935;PMS5003;62287;50.858;0.252;2023-01-16T01:24:49;7.0;7.0;
73935;PMS5003;62287;50.858;0.252;2023-01-16T01:25:20;9.0;7.0;
73935;PMS5003;62287;50.858;0.252;2023-01-16T01:25:52;7.0;5.0;
73935;PMS5003;62287;50.858;0.252;2023-01-16T01:26:23;10.0;10.0;
73935;PMS5003;62287;50.858;0.252;2023-01-16T01:26:54;9.0;6.0;
73935;PMS5003;62287;50.858;0.252;2023-01-16T01:27:25;12.0;12.0;
73935;PMS5003;62287;50.858;0.252;2023-01-16T01:27:56;8.0;8.0;
73935;PMS5003;62287;50.858;0.252;2023-01-16T01:28:26;9.0;8.0;
73935;PMS5003;62287;50.858;0.252;2023-01-16T01:28:57;6.0;6.0;
73935;PMS5003;62287;50.858;0.252;2023-01-16T01:29:29;8.0;8.0;
73935;PMS5003;62287;50.858;0.252;2023-01-16T01:29:59;6.0;6.0;
73935;PMS5003;62287;50.858;0.252;2023-01-16T01:30:30;8.0;8.0;
73935;PMS5003;62287;50.858;0.252;2023-01-16T01:31:02;7.0;7.0;
73935;PMS5003;62287;50.858;0.252;2023-01-16T01:31:33;6.0;6.0;
73935;PMS5003;62287;50.858;0.252;2023-01-16T01:32:04;6.0;5.0;
73935;PMS5003;62287;50.858;0.252;2023-01-16T01:32:35;6.0;6.0;
73935;PMS5003;62287;50.858;0.252;2023-01-16T01:33:06;8.0;8.0;
73935;PMS5003;62287;50.858;0.252;2023-01-16T01:33:37;7.0;5.0;
73935;PMS5003;62287;50.858;0.252;2023-01-16T01:34:09;7.0;5.0;
73935;PMS5003;62287;50.858;0.252;2023-01-16T01:34:40;6.0;6.0;
73935;PMS5003;62287;50.858;0.252;2023-01-16T01:35:11;7.0;7.0;
73935;PMS5003;62287;50.858;0.252;2023-01-16T01:35:42;7.0;7.0;
73935;PMS5003;62287;50.858;0.252;2023-01-16T01:36:13;6.0;6.0;
73935;PMS5003;62287;50.858;0.252;2023-01-16T01:36:44;11.0;9.0;
73935;PMS5003;62287;50.858;0.252;2023-01-16T01:37:15;6.0;6.0;
73935;PMS5003;62287;50.858;0.252;2023-01-16T01:37:46;10.0;7.0;
73935;PMS5003;62287;50.858;0.252;2023-01-16T01:38:17;10.0;7.0;
73935;PMS5003;62287;50.858;0.252;2023-01-16T01:38:48;7.0;7.0;
73935;PMS5003;62287;50.858;0.252;2023-01-16T01:39:19;9.0;8.0;
73935;PMS5003;62287;50.858;0.252;2023-01-16T01:39:50;6.0;5.0;
73935;PMS5003;62287;50.858;0.252;2023-01-16T01:40:21;8.0;6.0;
73935;PMS5003;62287;50.858;0.252;2023-01-16T01:40:52;8.0;5.0;
73935;PMS5003;62287;50.858;0.252;2023-01-16T01:41:23;8.0;8.0;
73935;PMS5003;62287;50.858;0.252;2023-01-16T01:41:54;8.0;8.0;
73935;PMS5003;62287;50.858;0.252;2023-01-16T01:42:25;7.0;6.0;
73935;PMS5003;62287;50.858;0.252;2023-01-16T01:42:56;5.0;5.0;
73935;PMS5003;62287;50.858;0.252;2023-01-16T01:43:38;6.0;6.0;
73935;PMS5003;62287;50.858;0.252;2023-01-16T01:45:17;6.0;6.0;
73935;PMS5003;62287;50.858;0.252;2023-01-16T01:45:50;7.0;5.0;
73935;PMS5003;62287;50.858;0.252;2023-01-16T01:46:26;7.0;4.0;
73935;PMS5003;62287;50.858;0.252;2023-01-16T01:47:00;8.0;7.0;
73935;PMS5003;62287;50.858;0.252;2023-01-16T01:47:32;7.0;6.0;
73935;PMS5003;62287;50.858;0.252;2023-01-16T01:48:11;6.0;6.0;
73935;PMS5003;62287;50.858;0.252;2023-01-16T01:48:51;6.0;6.0;
73935;PMS5003;62287;50.858;0.252;2023-01-16T01:49:28;8.0;5.0;
73935;PMS5003;62287;50.858;0.252;2023-01-16T01:50:02;4.0;4.0;
73935;PMS5003;62287;50.858;0.252;2023-01-16T01:50:36;6.0;6.0;
73935;PMS5003;62287;50.858;0.252;2023-01-16T01:51:14;6.0;6.0;
73935;PMS5003;62287;50.858;0.252;2023-01-16T01:51:49;7.0;5.0;
73935;PMS5003;62287;50.858;0.252;2023-01-16T01:52:24;7.0;6.0;
73935;PMS5003;62287;50.858;0.252;2023-01-16T01:52:56;6.0;6.0;
73935;PMS5003;62287;50.858;0.252;2023-01-16T01:53:32;8.0;8.0;
73935;PMS5003;62287;50.858;0.252;2023-01-16T01:54:07;6.0;6.0;
73935;PMS5003;62287;50.858;0.252;2023-01-16T01:54:42;8.0;8.0;
73935;PMS5003;62287;50.858;0.252;2023-01-16T01:55:16;6.0;6.0;
73935;PMS5003;62287;50.858;0.252;2023-01-16T01:55:50;6.0;6.0;
73935;PMS5003;62287;50.858;0.252;2023-01-16T01:56:22;5.0;5.0;
73935;PMS5003;62287;50.858;0.252;2023-01-16T01:56:57;7.0;5.0;
73935;PMS5003;62287;50.858;0.252;2023-01-16T01:57:32;6.0;5.0;
73935;PMS5003;62287;50.858;0.252;2023-01-16T01:58:07;5.0;5.0;
73935;PMS5003;62287;50.858;0.252;2023-01-16T01:58:38;9.0;6.0;
73935;PMS5003;62287;50.858;0.252;2023-01-16T01:59:11;6.0;5.0;
73935;PMS5003;62287;50.858;0.252;2023-01-16T01:59:45;6.0;6.0;
73935;PMS5003;62287;50.858;0.252;2023-01-16T02:00:20;3.0;3.0;
73935;PMS5003;62287;50.858;0.252;2023-01-16T02:00:55;6.0;6.0;
73935;PMS5003;62287;50.858;0.252;2023-01-16T02:01:27;6.0;6.0;
73935;PMS5003;62287;50.858;0.252;2023-01-16T02:02:00;4.0;4.0;
73935;PMS5003;62287;50.858;0.252;2023-01-16T02:02:34;5.0;5.0;
73935;PMS5003;62287;50.858;0.252;2023-01-16T02:03:09;6.0;6.0;
73935;PMS5003;62287;50.858;0.252;2023-01-16T02:03:46;5.0;4.0;
73935;PMS5003;62287;50.858;0.252;2023-01-16T02:04:21;4.0;3.0;
73935;PMS5003;62287;50.858;0.252;2023-01-16T02:04:58;4.0;4.0;
73935;PMS5003;62287;50.858;0.252;2023-01-16T02:05:30;6.0;5.0;
73935;PMS5003;62287;50.858;0.252;2023-01-16T02:06:06;8.0;6.0;
73935;PMS5003;62287;50.858;0.252;2023-01-16T02:06:40;4.0;4.0;
73935;PMS5003;62287;50.858;0.252;2023-01-16T02:07:16;4.0;4.0;
73935;PMS5003;62287;50.858;0.252;2023-01-16T02:07:49;4.0;3.0;
73935;PMS5003;62287;50.858;0.252;2023-01-16T02:08:22;4.0;4.0;
73935;PMS5003;62287;50.858;0.252;2023-01-16T02:08:57;4.0;4.0;
73935;PMS5003;62287;50.858;0.252;2023-01-16T02:09:28;4.0;4.0;
73935;PMS5003;62287;50.858;0.252;2023-01-16T02:10:02;4.0;4.0;
73935;PMS5003;62287;50.858;0.252;2023-01-16T02:10:42;7.0;7.0;
73935;PMS5003;62287;50.858;0.252;2023-01-16T02:11:16;7.0;7.0;
73935;PMS5003;62287;50.858;0.252;2023-01-16T02:11:53;4.0;4.0;
73935;PMS5003;62287;50.858;0.252;2023-01-16T02:12:25;5.0;5.0;
73935;PMS5003;62287;50.858;0.252;2023-01-16T02:12:57;4.0;3.0;
73935;PMS5003;62287;50.858;0.252;2023-01-16T02:13:30;5.0;5.0;
73935;PMS5003;62287;50.858;0.252;2023-01-16T02:14:04;4.0;4.0;
73935;PMS5003;62287;50.858;0.252;2023-01-16T02:14:38;6.0;6.0;
73935;PMS5003;62287;50.858;0.252;2023-01-16T02:15:11;7.0;5.0;
73935;PMS5003;62287;50.858;0.252;2023-01-16T02:15:42;6.0;5.0;
73935;PMS5003;62287;50.858;0.252;2023-01-16T02:16:13;5.0;4.0;
73935;PMS5003;62287;50.858;0.252;2023-01-16T02:16:44;3.0;3.0;
73935;PMS5003;62287;50.858;0.252;2023-01-16T02:17:17;5.0;5.0;
73935;PMS5003;62287;50.858;0.252;2023-01-16T02:17:49;3.0;3.0;
73935;PMS5003;62287;50.858;0.252;2023-01-16T02:18:20;3.0;3.0;
73935;PMS5003;62287;50.858;0.252;2023-01-16T02:18:51;4.0;4.0;
73935;PMS5003;62287;50.858;0.252;2023-01-16T02:19:25;6.0;5.0;
73935;PMS5003;62287;50.858;0.252;2023-01-16T02:20:12;5.0;5.0;
73935;PMS5003;62287;50.858;0.252;2023-01-16T02:20:52;3.0;2.0;
73935;PMS5003;62287;50.858;0.252;2023-01-16T02:21:44;3.0;2.0;
73935;PMS5003;62287;50.858;0.252;2023-01-16T02:22:43;3.0;3.0;
73935;PMS5003;62287;50.858;0.252;2023-01-16T02:27:21;4.0;3.0;
73935;PMS5003;62287;50.858;0.252;2023-01-16T02:28:17;4.0;3.0;
73935;PMS5003;62287;50.858;0.252;2023-01-16T02:32:51;6.0;4.0;
73935;PMS5003;62287;50.858;0.252;2023-01-16T02:33:33;4.0;3.0;
73935;PMS5003;62287;50.858;0.252;2023-01-16T02:34:19;4.0;4.0;
73935;PMS5003;62287;50.858;0.252;2023-01-16T02:35:02;3.0;3.0;
73935;PMS5003;62287;50.858;0.252;2023-01-16T02:35:49;3.0;3.0;
73935;PMS5003;62287;50.858;0.252;2023-01-16T02:36:32;4.0;4.0;
73935;PMS5003;62287;50.858;0.252;2023-01-16T02:37:16;3.0;3.0;
73935;PMS5003;62287;50.858;0.252;2023-01-16T02:37:56;4.0;3.0;
73935;PMS5003;62287;50.858;0.252;2023-01-16T02:38:38;3.0;3.0;
73935;PMS5003;62287;50.858;0.252;2023-01-16T02:39:27;3.0;3.0;
73935;PMS5003;62287;50.858;0.252;2023-01-16T02:40:11;3.0;3.0;
73935;PMS5003;62287;50.858;0.252;2023-01-16T02:40:55;3.0;3.0;
73935;PMS5003;62287;50.858;0.252;2023-01-16T02:41:32;3.0;3.0;
73935;PMS5003;62287;50.858;0.252;2023-01-16T02:42:10;5.0;5.0;
73935;PMS5003;62287;50.858;0.252;2023-01-16T02:42:53;4.0;4.0;
73935;PMS5003;62287;50.858;0.252;2023-01-16T02:43:34;3.0;3.0;
73935;PMS5003;62287;50.858;0.252;2023-01-16T02:44:16;4.0;4.0;
73935;PMS5003;62287;50.858;0.252;2023-01-16T02:44:56;3.0;3.0;
73935;PMS5003;62287;50.858;0.252;2023-01-16T02:45:34;4.0;3.0;
73935;PMS5003;62287;50.858;0.252;2023-01-16T02:46:15;3.0;3.0;
73935;PMS5003;62287;50.858;0.252;2023-01-16T02:47:03;5.0;4.0;
73935;PMS5003;62287;50.858;0.252;2023-01-16T02:47:42;3.0;3.0;
73935;PMS5003;62287;50.858;0.252;2023-01-16T02:48:21;3.0;3.0;
73935;PMS5003;62287;50.858;0.252;2023-01-16T02:48:59;3.0;3.0;
73935;PMS5003;62287;50.858;0.252;2023-01-16T02:49:39;3.0;2.0;
73935;PMS5003;62287;50.858;0.252;2023-01-16T02:50:13;2.0;2.0;
73935;PMS5003;62287;50.858;0.252;2023-01-16T02:50:52;3.0;2.0;
73935;PMS5003;62287;50.858;0.252;2023-01-16T02:51:29;3.0;3.0;
73935;PMS5003;62287;50.858;0.252;2023-01-16T02:52:05;3.0;3.0;
73935;PMS5003;62287;50.858;0.252;2023-01-16T02:52:43;3.0;2.0;
73935;PMS5003;62287;50.858;0.252;2023-01-16T02:53:20;4.0;3.0;
73935;PMS5003;62287;50.858;0.252;2023-01-16T02:53:58;3.0;1.0;
73935;PMS5003;62287;50.858;0.252;2023-01-16T02:54:35;3.0;3.0;
73935;PMS5003;62287;50.858;0.252;2023-01-16T02:55:14;2.0;2.0;
73935;PMS5003;62287;50.858;0.252;2023-01-16T02:55:52;3.0;2.0;
73935;PMS5003;62287;50.858;0.252;2023-01-16T02:56:28;1.0;1.0;
73935;PMS5003;62287;50.858;0.252;2023-01-16T02:57:06;2.0;2.0;
73935;PMS5003;62287;50.858;0.252;2023-01-16T02:57:42;2.0;2.0;
73935;PMS5003;62287;50.858;0.252;2023-01-16T02:58:17;3.0;3.0;
73935;PMS5003;62287;50.858;0.252;2023-01-16T02:58:50;3.0;3.0;
73935;PMS5003;62287;50.858;0.252;2023-01-16T02:59:21;2.0;1.0;
73935;PMS5003;62287;50.858;0.252;2023-01-16T02:59:54;3.0;3.0;
73935;PMS5003;62287;50.858;0.252;2023-01-16T03:00:26;2.0;2.0;
73935;PMS5003;62287;50.858;0.252;2023-01-16T03:00:59;2.0;1.0;
73935;PMS5003;62287;50.858;0.252;2023-01-16T03:01:32;4.0;2.0;
73935;PMS5003;62287;50.858;0.252;2023-01-16T03:02:04;3.0;3.0;
73935;PMS5003;62287;50.858;0.252;2023-01-16T03:02:36;2.0;2.0;
73935;PMS5003;62287;50.858;0.252;2023-01-16T03:03:15;2.0;2.0;
73935;PMS5003;62287;50.858;0.252;2023-01-16T03:04:02;1.0;1.0;
73935;PMS5003;62287;50.858;0.252;2023-01-16T03:04:40;2.0;2.0;
73935;PMS5003;62287;50.858;0.252;2023-01-16T03:05:14;2.0;2.0;
73935;PMS5003;62287;50.858;0.252;2023-01-16T03:05:45;3.0;3.0;
73935;PMS5003;62287;50.858;0.252;2023-01-16T03:06:24;2.0;2.0;
73935;PMS5003;62287;50.858;0.252;2023-01-16T03:07:05;2.0;2.0;
73935;PMS5003;62287;50.858;0.252;2023-01-16T03:08:14;2.0;2.0;
73935;PMS5003;62287;50.858;0.252;2023-01-16T03:08:56;2.0;2.0;
73935;PMS5003;62287;50.858;0.252;2023-01-16T03:09:40;3.0;3.0;
73935;PMS5003;62287;50.858;0.252;2023-01-16T03:10:23;4.0;3.0;
73935;PMS5003;62287;50.858;0.252;2023-01-16T03:11:13;3.0;2.0;
73935;PMS5003;62287;50.858;0.252;2023-01-16T03:11:47;1.0;1.0;
73935;PMS5003;62287;50.858;0.252;2023-01-16T03:12:32;3.0;3.0;
73935;PMS5003;62287;50.858;0.252;2023-01-16T03:13:17;2.0;2.0;
73935;PMS5003;62287;50.858;0.252;2023-01-16T03:14:01;2.0;2.0;
73935;PMS5003;62287;50.858;0.252;2023-01-16T03:14:48;1.0;1.0;
73935;PMS5003;62287;50.858;0.252;2023-01-16T03:15:26;3.0;3.0;
73935;PMS5003;62287;50.858;0.252;2023-01-16T03:16:04;1.0;1.0;
73935;PMS5003;62287;50.858;0.252;2023-01-16T03:16:47;2.0;2.0;
73935;PMS5003;62287;50.858;0.252;2023-01-16T03:17:36;1.0;1.0;
73935;PMS5003;62287;50.858;0.252;2023-01-16T03:18:17;1.0;1.0;
73935;PMS5003;62287;50.858;0.252;2023-01-16T03:19:06;2.0;2.0;
73935;PMS5003;62287;50.858;0.252;2023-01-16T03:19:52;3.0;3.0;
73935;PMS5003;62287;50.858;0.252;2023-01-16T03:20:33;2.0;2.0;
73935;PMS5003;62287;50.858;0.252;2023-01-16T03:21:17;3.0;2.0;
73935;PMS5003;62287;50.858;0.252;2023-01-16T03:21:59;3.0;3.0;
73935;PMS5003;62287;50.858;0.252;2023-01-16T03:22:41;2.0;2.0;
73935;PMS5003;62287;50.858;0.252;2023-01-16T03:23:20;1.0;1.0;
73935;PMS5003;62287;50.858;0.252;2023-01-16T03:24:00;1.0;1.0;
73935;PMS5003;62287;50.858;0.252;2023-01-16T03:24:42;3.0;1.0;
73935;PMS5003;62287;50.858;0.252;2023-01-16T03:25:24;2.0;2.0;
73935;PMS5003;62287;50.858;0.252;2023-01-16T03:26:01;1.0;1.0;
73935;PMS5003;62287;50.858;0.252;2023-01-16T03:26:38;1.0;1.0;
73935;PMS5003;62287;50.858;0.252;2023-01-16T03:27:16;1.0;1.0;
73935;PMS5003;62287;50.858;0.252;2023-01-16T03:27:59;3.0;3.0;
73935;PMS5003;62287;50.858;0.252;2023-01-16T03:28:43;1.0;1.0;
73935;PMS5003;62287;50.858;0.252;2023-01-16T03:29:24;1.0;1.0;
73935;PMS5003;62287;50.858;0.252;2023-01-16T03:30:05;1.0;1.0;
73935;PMS5003;62287;50.858;0.252;2023-01-16T03:30:45;1.0;1.0;
73935;PMS5003;62287;50.858;0.252;2023-01-16T03:31:23;4.0;2.0;
73935;PMS5003;62287;50.858;0.252;2023-01-16T03:32:01;5.0;2.0;
73935;PMS5003;62287;50.858;0.252;2023-01-16T03:32:38;2.0;2.0;
73935;PMS5003;62287;50.858;0.252;2023-01-16T03:33:15;4.0;3.0;
73935;PMS5003;62287;50.858;0.252;2023-01-16T03:33:54;0.0;0.0;
73935;PMS5003;62287;50.858;0.252;2023-01-16T03:34:30;1.0;1.0;
73935;PMS5003;62287;50.858;0.252;2023-01-16T03:35:07;1.0;1.0;
73935;PMS5003;62287;50.858;0.252;2023-01-16T03:35:44;1.0;1.0;
73935;PMS5003;62287;50.858;0.252;2023-01-16T03:36:23;1.0;1.0;
73935;PMS5003;62287;50.858;0.252;2023-01-16T03:37:03;1.0;1.0;
73935;PMS5003;62287;50.858;0.252;2023-01-16T03:37:39;1.0;1.0;
73935;PMS5003;62287;50.858;0.252;2023-01-16T03:38:15;2.0;2.0;
73935;PMS5003;62287;50.858;0.252;2023-01-16T03:38:49;2.0;2.0;
73935;PMS5003;62287;50.858;0.252;2023-01-16T03:39:24;1.0;1.0;
73935;PMS5003;62287;50.858;0.252;2023-01-16T03:40:03;2.0;2.0;
73935;PMS5003;62287;50.858;0.252;2023-01-16T03:40:37;2.0;2.0;
73935;PMS5003;62287;50.858;0.252;2023-01-16T03:41:12;1.0;1.0;
73935;PMS5003;62287;50.858;0.252;2023-01-16T03:41:47;4.0;2.0;
73935;PMS5003;62287;50.858;0.252;2023-01-16T03:42:22;3.0;2.0;
73935;PMS5003;62287;50.858;0.252;2023-01-16T03:42:57;2.0;2.0;
73935;PMS5003;62287;50.858;0.252;2023-01-16T03:43:32;0.0;0.0;
73935;PMS5003;62287;50.858;0.252;2023-01-16T03:44:07;1.0;1.0;
73935;PMS5003;62287;50.858;0.252;2023-01-16T03:44:45;1.0;1.0;
73935;PMS5003;62287;50.858;0.252;2023-01-16T03:45:20;1.0;1.0;
73935;PMS5003;62287;50.858;0.252;2023-01-16T03:45:55;0.0;0.0;
73935;PMS5003;62287;50.858;0.252;2023-01-16T03:46:31;2.0;2.0;
73935;PMS5003;62287;50.858;0.252;2023-01-16T03:47:08;1.0;1.0;
73935;PMS5003;62287;50.858;0.252;2023-01-16T03:47:45;1.0;1.0;